createdAt,value
2019-05-06T06:41:44.073Z,7.62
2019-05-06T06:42:44.043Z,7.41
2019-05-06T06:43:44.044Z,7.37
2019-05-06T06:44:44.853Z,7.41
2019-05-06T06:45:44.035Z,7.44
2019-05-06T06:46:44.071Z,7.40
2019-05-06T06:47:44.889Z,7.40
2019-05-06T06:48:44.099Z,7.44
2019-05-06T06:49:44.100Z,7.40
2019-05-06T11:45:22.692Z,13.41
2019-05-06T11:46:19.895Z,13.55
2019-05-06T11:47:27.357Z,13.55
2019-05-06T11:51:36.293Z,13.80
2019-05-06T11:54:24.830Z,14.02
2019-05-06T11:56:30.010Z,14.19
2019-05-06T11:57:22.986Z,14.07
2019-05-06T11:58:23.553Z,14.19
2019-05-06T11:59:22.424Z,14.17
2019-05-06T12:00:19.853Z,14.17
2019-05-06T12:01:21.811Z,14.13
2019-05-06T18:03:07.035Z,10.21
2019-05-06T18:04:05.618Z,10.24
2019-05-06T18:05:04.865Z,10.25
2019-05-06T18:06:06.956Z,10.33
2019-05-06T18:07:06.103Z,10.37
2019-05-06T18:08:06.147Z,10.40
2019-05-06T18:10:36.667Z,10.34
2019-05-06T18:11:36.499Z,10.21
2019-05-06T18:12:36.820Z,10.40
2019-05-06T18:13:36.639Z,10.37
2019-05-06T18:14:36.693Z,10.30
2019-05-06T18:15:36.894Z,10.32
2019-05-06T18:16:36.671Z,10.30
2019-05-06T18:17:36.706Z,10.39
2019-05-06T18:18:36.696Z,10.32
2019-05-06T18:19:36.732Z,10.22
2019-05-06T18:20:36.767Z,10.30
2019-05-06T18:21:36.807Z,10.30
2019-05-06T18:22:36.734Z,10.39
2019-05-06T18:23:36.726Z,10.25
2019-05-06T18:24:36.849Z,10.30
2019-05-06T18:25:36.816Z,10.36
2019-05-06T18:26:36.808Z,10.36
2019-05-06T18:27:36.759Z,10.26
2019-05-06T18:28:37.499Z,10.33
2019-05-06T18:29:36.685Z,10.33
2019-05-06T18:30:37.180Z,10.30
2019-05-06T18:31:36.929Z,10.26
2019-05-06T18:32:36.837Z,10.12
2019-05-06T18:33:36.991Z,10.09
2019-05-06T18:34:37.671Z,10.01
2019-05-06T18:35:37.015Z,10.03
2019-05-06T18:36:36.954Z,10.07
2019-05-06T18:37:37.471Z,10.10
2019-05-06T18:38:36.987Z,10.17
2019-05-06T18:39:37.662Z,10.12
2019-05-06T18:40:36.440Z,10.21
2019-05-06T18:41:36.396Z,10.21
2019-05-06T18:42:36.332Z,10.25
2019-05-06T18:43:36.353Z,10.19
2019-05-06T18:44:36.358Z,10.18
2019-05-06T18:45:36.456Z,10.19
2019-05-06T18:46:36.424Z,10.14
2019-05-06T18:47:36.420Z,10.07
2019-05-06T18:48:36.520Z,10.06
2019-05-06T18:49:36.428Z,9.96
2019-05-06T18:50:36.451Z,9.96
2019-05-06T18:51:36.471Z,9.88
2019-05-06T18:52:36.518Z,9.85
2019-05-06T18:53:36.527Z,9.82
2019-05-06T18:54:36.535Z,9.82
2019-05-06T18:55:36.514Z,9.71
2019-05-06T18:56:36.597Z,9.73
2019-05-06T18:57:36.547Z,9.79
2019-05-06T18:58:36.585Z,9.67
2019-05-06T18:59:37.134Z,9.61
2019-05-06T19:00:36.584Z,9.58
2019-05-06T19:01:36.636Z,9.70
2019-05-06T19:02:36.626Z,9.68
2019-05-06T19:03:36.623Z,9.64
2019-05-06T19:04:36.656Z,9.61
2019-05-06T19:05:36.724Z,9.56
2019-05-06T19:06:36.684Z,9.63
2019-05-06T19:07:36.700Z,9.50
2019-05-06T19:08:36.745Z,9.52
2019-05-06T19:09:36.753Z,9.46
2019-05-06T19:10:36.728Z,9.42
2019-05-06T19:11:36.844Z,9.32
2019-05-06T19:12:41.184Z,9.25
2019-05-06T19:13:36.767Z,9.16
2019-05-06T19:14:36.784Z,9.21
2019-05-06T19:15:36.797Z,9.20
2019-05-06T19:16:48.785Z,9.18
2019-05-06T19:17:36.887Z,9.12
2019-05-06T19:18:38.646Z,9.10
2019-05-06T19:19:36.915Z,9.01
2019-05-06T19:20:36.935Z,9.12
2019-05-06T19:21:36.879Z,9.10
2019-05-06T19:22:36.932Z,9.06
2019-05-06T19:23:36.906Z,8.91
2019-05-06T19:24:36.922Z,8.84
2019-05-06T19:25:36.934Z,8.78
2019-05-06T19:26:36.947Z,8.73
2019-05-06T19:27:36.991Z,8.71
2019-05-06T19:28:36.982Z,8.62
2019-05-06T19:29:37.042Z,8.65
2019-05-06T19:30:37.047Z,8.55
2019-05-06T19:31:37.019Z,8.51
2019-05-06T19:32:37.105Z,8.44
2019-05-06T19:33:37.065Z,8.47
2019-05-06T19:34:37.061Z,8.33
2019-05-06T19:35:37.254Z,8.32
2019-05-06T19:36:37.111Z,8.37
2019-05-06T19:37:37.109Z,8.35
2019-05-06T19:38:37.183Z,8.28
2019-05-06T19:39:37.128Z,8.22
2019-05-06T19:40:37.173Z,8.26
2019-05-06T19:41:37.152Z,8.29
2019-05-06T19:42:48.880Z,8.35
2019-05-06T19:43:37.214Z,8.37
2019-05-06T19:44:37.264Z,8.33
2019-05-06T19:45:37.231Z,8.36
2019-05-06T19:46:37.303Z,8.32
2019-05-06T19:47:37.237Z,8.33
2019-05-06T19:48:37.263Z,8.35
2019-05-06T19:49:37.264Z,8.33
2019-05-06T19:50:37.283Z,8.25
2019-05-06T19:51:37.290Z,8.32
2019-05-06T19:52:37.349Z,8.30
2019-05-06T19:53:37.318Z,8.37
2019-05-06T19:54:37.388Z,8.36
2019-05-06T19:55:37.365Z,8.36
2019-05-06T19:56:37.386Z,8.33
2019-05-06T19:57:37.405Z,8.28
2019-05-06T19:58:37.423Z,8.30
2019-05-06T19:59:37.469Z,8.25
2019-05-06T20:00:37.411Z,8.14
2019-05-06T20:01:37.425Z,8.08
2019-05-06T20:02:37.436Z,8.22
2019-05-06T20:03:37.451Z,8.29
2019-05-06T20:04:37.516Z,8.29
2019-05-06T20:05:37.549Z,8.12
2019-05-06T20:06:37.551Z,8.17
2019-05-06T20:07:37.530Z,8.22
2019-05-06T20:08:37.551Z,8.20
2019-05-06T20:09:37.534Z,8.18
2019-05-06T20:10:37.551Z,8.17
2019-05-06T20:11:37.565Z,8.22
2019-05-06T20:12:37.609Z,8.12
2019-05-06T20:13:37.638Z,8.02
2019-05-06T20:14:37.625Z,8.02
2019-05-06T20:15:37.634Z,8.03
2019-05-06T20:16:37.626Z,7.99
2019-05-06T20:17:37.693Z,7.97
2019-05-06T20:18:37.654Z,8.03
2019-05-06T20:19:37.729Z,8.02
2019-05-06T20:20:37.699Z,8.03
2019-05-06T20:21:37.691Z,8.02
2019-05-06T20:22:37.717Z,7.96
2019-05-06T20:23:37.717Z,7.97
2019-05-06T20:24:37.756Z,7.90
2019-05-06T20:25:37.758Z,7.90
2019-05-06T20:26:37.847Z,7.93
2019-05-06T20:27:37.792Z,7.84
2019-05-06T20:28:37.786Z,7.89
2019-05-06T20:29:38.424Z,7.85
2019-05-06T20:30:37.807Z,7.82
2019-05-06T20:31:37.824Z,7.81
2019-05-06T20:32:37.841Z,7.78
2019-05-06T20:33:37.850Z,7.90
2019-05-06T20:34:37.896Z,7.90
2019-05-06T20:35:37.873Z,7.79
2019-05-06T20:36:37.969Z,7.79
2019-05-06T20:37:37.921Z,7.77
2019-05-06T20:38:37.961Z,7.93
2019-05-06T20:39:37.931Z,8.03
2019-05-06T20:40:38.545Z,8.03
2019-05-06T20:41:38.033Z,8.08
2019-05-06T20:42:37.968Z,8.10
2019-05-06T20:43:38.074Z,8.12
2019-05-06T20:44:38.061Z,8.08
2019-05-06T20:45:38.030Z,8.10
2019-05-06T20:46:38.032Z,8.11
2019-05-06T20:47:38.072Z,8.11
2019-05-06T20:48:38.105Z,8.04
2019-05-06T20:49:38.062Z,8.00
2019-05-06T20:50:38.141Z,8.11
2019-05-06T20:51:38.160Z,8.18
2019-05-06T20:52:38.191Z,8.14
2019-05-06T20:53:38.181Z,8.25
2019-05-06T20:54:38.133Z,8.29
2019-05-06T20:55:38.180Z,8.26
2019-05-06T20:56:38.163Z,8.28
2019-05-06T20:57:38.182Z,8.28
2019-05-06T20:58:38.214Z,8.28
2019-05-06T20:59:38.270Z,8.29
2019-05-06T21:00:38.208Z,8.26
2019-05-06T21:01:38.226Z,8.33
2019-05-06T21:02:38.227Z,8.29
2019-05-06T21:03:38.328Z,8.14
2019-05-06T21:04:38.302Z,8.08
2019-05-06T21:05:38.299Z,8.02
2019-05-06T21:06:38.286Z,8.08
2019-05-06T21:07:38.350Z,8.02
2019-05-06T21:08:38.345Z,8.00
2019-05-06T21:09:38.393Z,8.12
2019-05-06T21:10:38.337Z,8.14
2019-05-06T21:11:38.408Z,8.15
2019-05-06T21:12:38.369Z,8.17
2019-05-06T21:13:38.386Z,8.11
2019-05-06T21:14:38.407Z,8.21
2019-05-06T21:15:38.404Z,8.12
2019-05-06T21:16:38.459Z,8.21
2019-05-06T21:17:38.530Z,8.25
2019-05-06T21:18:38.442Z,8.26
2019-05-06T21:19:38.465Z,8.22
2019-05-06T21:20:38.479Z,8.35
2019-05-06T21:21:38.525Z,8.30
2019-05-06T21:22:38.540Z,8.37
2019-05-06T21:23:38.557Z,8.45
2019-05-06T21:24:38.537Z,8.44
2019-05-06T21:25:38.571Z,8.54
2019-05-06T21:26:38.549Z,8.58
2019-05-06T21:27:38.575Z,8.63
2019-05-06T21:28:38.617Z,8.58
2019-05-06T21:29:38.597Z,8.53
2019-05-06T21:30:38.637Z,8.57
2019-05-06T21:31:38.644Z,8.60
2019-05-06T21:32:38.638Z,8.54
2019-05-06T21:33:38.676Z,8.51
2019-05-06T21:34:38.655Z,8.48
2019-05-06T21:35:38.703Z,8.53
2019-05-06T21:36:38.751Z,8.53
2019-05-06T21:37:38.700Z,8.53
2019-05-06T21:38:38.734Z,8.51
2019-05-06T21:39:38.724Z,8.57
2019-05-06T21:40:38.825Z,8.54
2019-05-06T21:41:38.758Z,8.55
2019-05-06T21:42:38.763Z,8.47
2019-05-06T21:43:47.164Z,8.37
2019-05-06T21:44:38.798Z,8.30
2019-05-06T21:45:38.810Z,8.28
2019-05-06T21:46:38.843Z,8.35
2019-05-06T21:47:38.852Z,8.30
2019-05-06T21:48:38.843Z,8.28
2019-05-06T21:49:38.857Z,8.28
2019-05-06T21:50:38.908Z,8.32
2019-05-06T21:51:38.890Z,8.12
2019-05-06T21:52:39.918Z,8.21
2019-05-06T21:53:38.943Z,8.22
2019-05-06T21:54:39.014Z,8.20
2019-05-06T21:55:38.943Z,8.21
2019-05-06T21:56:38.978Z,8.28
2019-05-06T21:57:39.009Z,8.10
2019-05-06T21:58:38.975Z,8.07
2019-05-06T21:59:39.013Z,8.11
2019-05-06T22:00:39.004Z,8.00
2019-05-06T22:01:39.016Z,8.00
2019-05-06T22:02:39.029Z,8.12
2019-05-06T22:03:39.080Z,8.26
2019-05-06T22:04:39.070Z,8.17
2019-05-06T22:05:39.146Z,8.25
2019-05-06T22:06:39.154Z,8.29
2019-05-06T22:07:39.157Z,8.22
2019-05-06T22:08:39.144Z,8.29
2019-05-06T22:09:39.156Z,8.20
2019-05-06T22:10:39.145Z,8.21
2019-05-06T22:11:39.187Z,8.30
2019-05-06T22:12:39.203Z,8.26
2019-05-06T22:13:39.248Z,8.21
2019-05-06T22:14:39.267Z,8.15
2019-05-06T22:15:39.201Z,8.00
2019-05-06T22:16:39.223Z,8.04
2019-05-06T22:17:39.234Z,8.10
2019-05-06T22:18:39.247Z,8.03
2019-05-06T22:19:39.255Z,7.97
2019-05-06T22:20:39.271Z,8.02
2019-05-06T22:21:39.813Z,8.02
2019-05-06T22:22:39.307Z,8.03
2019-05-06T22:23:39.330Z,8.04
2019-05-06T22:24:39.341Z,7.96
2019-05-06T22:25:39.371Z,7.96
2019-05-06T22:26:39.414Z,8.02
2019-05-06T22:27:39.395Z,7.93
2019-05-06T22:28:39.422Z,7.87
2019-05-06T22:29:39.393Z,7.87
2019-05-06T22:30:39.472Z,7.82
2019-05-06T22:31:39.494Z,7.82
2019-05-06T22:32:39.484Z,7.84
2019-05-06T22:33:39.443Z,7.74
2019-05-06T22:34:39.457Z,7.77
2019-05-06T22:35:39.477Z,7.75
2019-05-06T22:36:39.503Z,7.77
2019-05-06T22:37:39.500Z,7.77
2019-05-06T22:38:39.541Z,7.74
2019-05-06T22:39:39.556Z,7.71
2019-05-06T22:40:39.543Z,7.84
2019-05-06T22:41:39.611Z,7.79
2019-05-06T22:42:39.589Z,7.77
2019-05-06T22:43:39.604Z,7.79
2019-05-06T22:44:39.637Z,7.58
2019-05-06T22:45:39.640Z,7.60
2019-05-06T22:46:39.642Z,7.60
2019-05-06T22:47:41.862Z,7.60
2019-05-06T22:48:39.682Z,7.60
2019-05-06T22:49:39.744Z,7.56
2019-05-06T22:50:39.742Z,7.52
2019-05-06T22:51:39.685Z,7.53
2019-05-06T22:52:41.946Z,7.52
2019-05-06T22:53:39.747Z,7.56
2019-05-06T22:54:39.720Z,7.55
2019-05-06T22:55:39.778Z,7.49
2019-05-06T22:56:39.823Z,7.55
2019-05-06T22:57:42.050Z,7.53
2019-05-06T22:58:39.770Z,7.59
2019-05-06T22:59:39.796Z,7.69
2019-05-06T23:00:39.826Z,7.59
2019-05-06T23:01:39.866Z,7.77
2019-05-06T23:02:39.835Z,7.62
2019-05-06T23:03:39.848Z,7.66
2019-05-06T23:04:39.947Z,7.62
2019-05-06T23:05:42.198Z,7.62
2019-05-06T23:06:39.893Z,7.58
2019-05-06T23:07:42.160Z,7.67
2019-05-06T23:08:39.977Z,7.82
2019-05-06T23:09:39.990Z,7.81
2019-05-06T23:10:42.099Z,7.74
2019-05-06T23:11:42.264Z,7.75
2019-05-06T23:12:39.965Z,7.84
2019-05-06T23:13:41.901Z,7.79
2019-05-06T23:14:42.030Z,7.79
2019-05-06T23:15:41.886Z,7.78
2019-05-06T23:16:40.020Z,7.81
2019-05-06T23:17:41.963Z,7.78
2019-05-06T23:18:40.041Z,7.69
2019-05-06T23:19:40.097Z,7.75
2019-05-06T23:20:40.176Z,7.71
2019-05-06T23:21:40.126Z,7.71
2019-05-06T23:22:42.190Z,7.58
2019-05-06T23:23:40.119Z,7.63
2019-05-06T23:24:40.144Z,7.59
2019-05-06T23:25:43.402Z,7.69
2019-05-06T23:26:40.143Z,7.60
2019-05-06T23:27:43.841Z,7.62
2019-05-06T23:28:41.600Z,7.60
2019-05-06T23:29:40.256Z,7.59
2019-05-06T23:30:40.194Z,7.59
2019-05-06T23:31:42.338Z,7.59
2019-05-06T23:32:42.091Z,7.60
2019-05-06T23:33:40.310Z,7.52
2019-05-06T23:34:40.252Z,7.58
2019-05-06T23:35:43.760Z,7.52
2019-05-06T23:36:41.722Z,7.55
2019-05-06T23:37:41.923Z,7.52
2019-05-06T23:38:40.298Z,7.52
2019-05-06T23:39:40.374Z,7.47
2019-05-06T23:40:42.534Z,7.53
2019-05-06T23:41:42.220Z,7.55
2019-05-06T23:42:41.921Z,7.52
2019-05-06T23:43:42.517Z,7.58
2019-05-06T23:44:45.823Z,7.56
2019-05-06T23:45:40.390Z,7.56
2019-05-06T23:46:40.439Z,7.59
2019-05-06T23:47:42.229Z,7.62
2019-05-06T23:48:40.462Z,7.60
2019-05-06T23:49:42.205Z,7.62
2019-05-06T23:50:42.698Z,7.74
2019-05-06T23:51:42.397Z,7.75
2019-05-06T23:52:40.498Z,7.85
2019-05-06T23:53:40.493Z,7.85
2019-05-06T23:54:42.699Z,7.97
2019-05-06T23:55:42.017Z,7.93
2019-05-06T23:56:42.893Z,7.89
2019-05-06T23:57:41.789Z,7.81
2019-05-06T23:58:42.750Z,7.77
2019-05-06T23:59:42.954Z,7.90
